sensor_id;sensor_type;location;lat;lon;timestamp;temperature;humidity
16700;DHT22;8466;52.286;21.124;2023-04-03T00:01:23;1.70;99.90
16700;DHT22;8466;52.286;21.124;2023-04-03T00:03:52;1.70;99.90
16700;DHT22;8466;52.286;21.124;2023-04-03T00:06:21;1.60;99.90
16700;DHT22;8466;52.286;21.124;2023-04-03T00:08:50;1.50;99.90
16700;DHT22;8466;52.286;21.124;2023-04-03T00:11:19;1.50;99.90
16700;DHT22;8466;52.286;21.124;2023-04-03T00:13:48;1.50;99.90
16700;DHT22;8466;52.286;21.124;2023-04-03T00:16:19;1.40;99.90
16700;DHT22;8466;52.286;21.124;2023-04-03T00:18:47;1.30;99.90
16700;DHT22;8466;52.286;21.124;2023-04-03T00:21:16;1.30;99.90
16700;DHT22;8466;52.286;21.124;2023-04-03T00:23:44;1.30;99.90
16700;DHT22;8466;52.286;21.124;2023-04-03T00:26:13;1.30;99.90
16700;DHT22;8466;52.286;21.124;2023-04-03T00:28:42;1.30;99.90
16700;DHT22;8466;52.286;21.124;2023-04-03T00:31:10;1.30;99.90
16700;DHT22;8466;52.286;21.124;2023-04-03T00:33:40;1.20;99.90
16700;DHT22;8466;52.286;21.124;2023-04-03T00:36:10;1.20;99.90
16700;DHT22;8466;52.286;21.124;2023-04-03T00:38:39;1.20;99.90
16700;DHT22;8466;52.286;21.124;2023-04-03T00:41:08;1.10;99.90
16700;DHT22;8466;52.286;21.124;2023-04-03T00:43:37;1.00;99.90
16700;DHT22;8466;52.286;21.124;2023-04-03T00:46:05;1.00;99.90
16700;DHT22;8466;52.286;21.124;2023-04-03T00:48:36;0.90;99.90
16700;DHT22;8466;52.286;21.124;2023-04-03T00:51:09;0.90;99.90
16700;DHT22;8466;52.286;21.124;2023-04-03T00:53:43;0.90;99.90
16700;DHT22;8466;52.286;21.124;2023-04-03T00:56:13;0.80;99.90
16700;DHT22;8466;52.286;21.124;2023-04-03T00:58:47;0.80;99.90
16700;DHT22;8466;52.286;21.124;2023-04-03T01:01:20;0.80;99.90
16700;DHT22;8466;52.286;21.124;2023-04-03T01:03:50;0.80;99.90
16700;DHT22;8466;52.286;21.124;2023-04-03T01:06:24;0.80;99.90
16700;DHT22;8466;52.286;21.124;2023-04-03T01:08:58;0.70;99.90
16700;DHT22;8466;52.286;21.124;2023-04-03T01:11:28;0.60;99.90
16700;DHT22;8466;52.286;21.124;2023-04-03T01:14:00;0.50;99.90
16700;DHT22;8466;52.286;21.124;2023-04-03T01:16:30;0.50;99.90
16700;DHT22;8466;52.286;21.124;2023-04-03T01:19:03;0.40;99.90
16700;DHT22;8466;52.286;21.124;2023-04-03T01:21:57;0.60;99.90
16700;DHT22;8466;52.286;21.124;2023-04-03T01:24:34;0.60;99.90
16700;DHT22;8466;52.286;21.124;2023-04-03T01:27:06;0.50;99.90
16700;DHT22;8466;52.286;21.124;2023-04-03T01:29:36;0.50;99.90
16700;DHT22;8466;52.286;21.124;2023-04-03T01:32:06;0.50;99.90
16700;DHT22;8466;52.286;21.124;2023-04-03T01:34:37;0.50;99.90
16700;DHT22;8466;52.286;21.124;2023-04-03T01:37:06;0.30;99.90
16700;DHT22;8466;52.286;21.124;2023-04-03T01:39:35;0.40;99.90
16700;DHT22;8466;52.286;21.124;2023-04-03T01:42:05;0.30;99.90
16700;DHT22;8466;52.286;21.124;2023-04-03T01:44:34;0.30;99.90
16700;DHT22;8466;52.286;21.124;2023-04-03T01:47:07;0.20;99.90
16700;DHT22;8466;52.286;21.124;2023-04-03T01:49:36;0.20;99.90
16700;DHT22;8466;52.286;21.124;2023-04-03T01:52:04;0.20;99.90
16700;DHT22;8466;52.286;21.124;2023-04-03T01:54:33;0.20;99.90
16700;DHT22;8466;52.286;21.124;2023-04-03T01:57:02;0.20;99.90
16700;DHT22;8466;52.286;21.124;2023-04-03T01:59:31;0.20;99.90
16700;DHT22;8466;52.286;21.124;2023-04-03T02:01:59;0.30;99.90
16700;DHT22;8466;52.286;21.124;2023-04-03T02:04:29;0.20;99.90
16700;DHT22;8466;52.286;21.124;2023-04-03T02:06:58;0.20;99.90
16700;DHT22;8466;52.286;21.124;2023-04-03T02:09:27;0.20;99.90
16700;DHT22;8466;52.286;21.124;2023-04-03T02:11:56;0.20;99.90
16700;DHT22;8466;52.286;21.124;2023-04-03T02:14:24;0.10;99.90
16700;DHT22;8466;52.286;21.124;2023-04-03T02:16:54;0.10;99.90
16700;DHT22;8466;52.286;21.124;2023-04-03T02:19:23;0.20;99.90
16700;DHT22;8466;52.286;21.124;2023-04-03T02:21:53;0.20;99.90
16700;DHT22;8466;52.286;21.124;2023-04-03T02:24:22;0.10;99.90
16700;DHT22;8466;52.286;21.124;2023-04-03T02:26:50;0.10;99.90
16700;DHT22;8466;52.286;21.124;2023-04-03T02:29:19;0.00;99.90
16700;DHT22;8466;52.286;21.124;2023-04-03T02:31:48;0.00;99.90
16700;DHT22;8466;52.286;21.124;2023-04-03T02:34:16;0.00;99.90
16700;DHT22;8466;52.286;21.124;2023-04-03T02:36:45;0.00;99.90
16700;DHT22;8466;52.286;21.124;2023-04-03T02:39:15;0.00;99.90
16700;DHT22;8466;52.286;21.124;2023-04-03T02:41:44;0.00;99.90
16700;DHT22;8466;52.286;21.124;2023-04-03T02:44:13;-0.10;99.90
16700;DHT22;8466;52.286;21.124;2023-04-03T02:46:42;-0.10;99.90
16700;DHT22;8466;52.286;21.124;2023-04-03T02:49:10;-0.20;99.90
16700;DHT22;8466;52.286;21.124;2023-04-03T02:51:39;-0.20;99.90
16700;DHT22;8466;52.286;21.124;2023-04-03T02:54:08;-0.20;99.90
16700;DHT22;8466;52.286;21.124;2023-04-03T02:56:38;-0.20;99.90
16700;DHT22;8466;52.286;21.124;2023-04-03T02:59:06;-0.30;99.90
16700;DHT22;8466;52.286;21.124;2023-04-03T03:01:35;-0.30;99.90
16700;DHT22;8466;52.286;21.124;2023-04-03T03:04:04;-0.30;99.90
16700;DHT22;8466;52.286;21.124;2023-04-03T03:06:33;-0.40;99.90
16700;DHT22;8466;52.286;21.124;2023-04-03T03:09:01;-0.40;99.90
16700;DHT22;8466;52.286;21.124;2023-04-03T03:11:30;-0.50;99.90
16700;DHT22;8466;52.286;21.124;2023-04-03T03:14:00;-0.50;99.90
16700;DHT22;8466;52.286;21.124;2023-04-03T03:16:29;-0.60;99.90
16700;DHT22;8466;52.286;21.124;2023-04-03T03:18:58;-0.50;99.90
16700;DHT22;8466;52.286;21.124;2023-04-03T03:21:26;-0.50;99.90
16700;DHT22;8466;52.286;21.124;2023-04-03T03:23:55;-0.60;99.90
16700;DHT22;8466;52.286;21.124;2023-04-03T03:26:24;-0.60;99.90
16700;DHT22;8466;52.286;21.124;2023-04-03T03:28:52;-0.70;99.90
16700;DHT22;8466;52.286;21.124;2023-04-03T03:31:23;-0.70;99.90
16700;DHT22;8466;52.286;21.124;2023-04-03T03:33:51;-0.80;99.90
16700;DHT22;8466;52.286;21.124;2023-04-03T03:36:20;-0.80;99.90
16700;DHT22;8466;52.286;21.124;2023-04-03T03:38:48;-0.80;99.90
16700;DHT22;8466;52.286;21.124;2023-04-03T03:41:17;-0.90;99.90
16700;DHT22;8466;52.286;21.124;2023-04-03T03:43:45;-0.90;99.90
16700;DHT22;8466;52.286;21.124;2023-04-03T03:46:14;-1.00;99.90
16700;DHT22;8466;52.286;21.124;2023-04-03T03:48:44;-1.00;99.90
16700;DHT22;8466;52.286;21.124;2023-04-03T03:51:13;-1.00;99.90
16700;DHT22;8466;52.286;21.124;2023-04-03T03:53:42;-1.00;99.90
16700;DHT22;8466;52.286;21.124;2023-04-03T03:56:11;-1.00;99.90
16700;DHT22;8466;52.286;21.124;2023-04-03T03:58:39;-1.00;99.90
16700;DHT22;8466;52.286;21.124;2023-04-03T04:01:08;-0.90;99.90
16700;DHT22;8466;52.286;21.124;2023-04-03T04:03:37;-1.00;99.90
16700;DHT22;8466;52.286;21.124;2023-04-03T04:06:07;-1.00;99.90
16700;DHT22;8466;52.286;21.124;2023-04-03T04:08:36;-1.10;99.90
16700;DHT22;8466;52.286;21.124;2023-04-03T04:11:04;-1.00;99.90
16700;DHT22;8466;52.286;21.124;2023-04-03T04:13:33;-1.10;99.90
16700;DHT22;8466;52.286;21.124;2023-04-03T04:16:02;-1.10;99.90
16700;DHT22;8466;52.286;21.124;2023-04-03T04:18:30;-1.20;99.90
16700;DHT22;8466;52.286;21.124;2023-04-03T04:20:59;-1.20;99.90
16700;DHT22;8466;52.286;21.124;2023-04-03T04:23:30;-1.10;99.90
16700;DHT22;8466;52.286;21.124;2023-04-03T04:25:59;-1.10;99.90
16700;DHT22;8466;52.286;21.124;2023-04-03T04:28:27;-1.10;99.90
16700;DHT22;8466;52.286;21.124;2023-04-03T04:30:57;-1.00;99.90
16700;DHT22;8466;52.286;21.124;2023-04-03T04:33:25;-1.20;99.90
16700;DHT22;8466;52.286;21.124;2023-04-03T04:35:54;-1.20;99.90
16700;DHT22;8466;52.286;21.124;2023-04-03T04:38:23;-1.10;99.90
16700;DHT22;8466;52.286;21.124;2023-04-03T04:40:53;-1.10;99.90
16700;DHT22;8466;52.286;21.124;2023-04-03T04:43:22;-1.10;99.90
16700;DHT22;8466;52.286;21.124;2023-04-03T04:46:02;-1.10;99.90
16700;DHT22;8466;52.286;21.124;2023-04-03T04:48:32;-1.00;99.90
16700;DHT22;8466;52.286;21.124;2023-04-03T04:51:01;-1.10;99.90
16700;DHT22;8466;52.286;21.124;2023-04-03T04:53:29;-1.00;99.90
16700;DHT22;8466;52.286;21.124;2023-04-03T04:56:00;-0.90;99.90
16700;DHT22;8466;52.286;21.124;2023-04-03T04:58:29;-0.90;99.90
16700;DHT22;8466;52.286;21.124;2023-04-03T05:01:01;-0.90;99.90
16700;DHT22;8466;52.286;21.124;2023-04-03T05:03:30;-0.90;99.90
16700;DHT22;8466;52.286;21.124;2023-04-03T05:05:59;-0.80;99.90
16700;DHT22;8466;52.286;21.124;2023-04-03T05:08:28;-0.80;99.90
16700;DHT22;8466;52.286;21.124;2023-04-03T05:10:57;-0.70;99.90
16700;DHT22;8466;52.286;21.124;2023-04-03T05:13:27;-0.70;99.90
16700;DHT22;8466;52.286;21.124;2023-04-03T05:15:56;-0.70;99.90
16700;DHT22;8466;52.286;21.124;2023-04-03T05:18:25;-0.60;99.90
16700;DHT22;8466;52.286;21.124;2023-04-03T05:20:53;-0.50;99.90
16700;DHT22;8466;52.286;21.124;2023-04-03T05:23:22;-0.50;99.90
16700;DHT22;8466;52.286;21.124;2023-04-03T05:25:50;-0.40;99.90
16700;DHT22;8466;52.286;21.124;2023-04-03T05:28:19;-0.40;99.90
16700;DHT22;8466;52.286;21.124;2023-04-03T05:30:54;-0.40;99.90
16700;DHT22;8466;52.286;21.124;2023-04-03T05:33:24;-0.40;99.90
16700;DHT22;8466;52.286;21.124;2023-04-03T05:35:53;-0.30;99.90
16700;DHT22;8466;52.286;21.124;2023-04-03T05:38:22;-0.30;99.90
16700;DHT22;8466;52.286;21.124;2023-04-03T05:40:51;-0.20;99.90
16700;DHT22;8466;52.286;21.124;2023-04-03T05:43:19;-0.20;99.90
16700;DHT22;8466;52.286;21.124;2023-04-03T05:45:48;-0.30;99.90
16700;DHT22;8466;52.286;21.124;2023-04-03T05:48:18;-0.20;99.90
16700;DHT22;8466;52.286;21.124;2023-04-03T05:50:47;-0.10;99.90
16700;DHT22;8466;52.286;21.124;2023-04-03T05:53:20;-0.10;99.90
16700;DHT22;8466;52.286;21.124;2023-04-03T05:55:49;0.00;99.90
16700;DHT22;8466;52.286;21.124;2023-04-03T05:58:18;0.10;99.90
16700;DHT22;8466;52.286;21.124;2023-04-03T06:00:46;0.10;99.90
16700;DHT22;8466;52.286;21.124;2023-04-03T06:03:15;0.10;99.90
16700;DHT22;8466;52.286;21.124;2023-04-03T06:05:46;-0.20;99.90
16700;DHT22;8466;52.286;21.124;2023-04-03T06:08:15;0.10;99.90
16700;DHT22;8466;52.286;21.124;2023-04-03T06:10:44;0.00;99.90
16700;DHT22;8466;52.286;21.124;2023-04-03T06:13:12;0.00;99.90
16700;DHT22;8466;52.286;21.124;2023-04-03T06:15:41;0.00;99.90
16700;DHT22;8466;52.286;21.124;2023-04-03T06:18:10;0.00;99.90
16700;DHT22;8466;52.286;21.124;2023-04-03T06:20:38;0.00;99.90
16700;DHT22;8466;52.286;21.124;2023-04-03T06:23:09;0.10;99.90
16700;DHT22;8466;52.286;21.124;2023-04-03T06:25:37;0.10;99.90
16700;DHT22;8466;52.286;21.124;2023-04-03T06:28:06;0.00;99.90
16700;DHT22;8466;52.286;21.124;2023-04-03T06:30:36;0.00;99.90
16700;DHT22;8466;52.286;21.124;2023-04-03T06:33:05;-0.10;99.90
16700;DHT22;8466;52.286;21.124;2023-04-03T06:35:34;0.00;99.90
16700;DHT22;8466;52.286;21.124;2023-04-03T06:38:04;0.00;99.90
16700;DHT22;8466;52.286;21.124;2023-04-03T06:40:37;0.00;99.90
16700;DHT22;8466;52.286;21.124;2023-04-03T06:43:06;0.10;99.90
16700;DHT22;8466;52.286;21.124;2023-04-03T06:45:35;0.10;99.90
16700;DHT22;8466;52.286;21.124;2023-04-03T06:48:05;0.30;99.90
16700;DHT22;8466;52.286;21.124;2023-04-03T06:50:34;0.40;99.90
16700;DHT22;8466;52.286;21.124;2023-04-03T06:53:02;0.50;99.90
16700;DHT22;8466;52.286;21.124;2023-04-03T06:55:31;0.50;99.90
16700;DHT22;8466;52.286;21.124;2023-04-03T06:58:02;0.50;99.90
16700;DHT22;8466;52.286;21.124;2023-04-03T07:00:31;0.60;99.90
16700;DHT22;8466;52.286;21.124;2023-04-03T07:03:00;0.60;99.90
16700;DHT22;8466;52.286;21.124;2023-04-03T07:05:28;0.60;99.90
16700;DHT22;8466;52.286;21.124;2023-04-03T07:07:57;0.70;99.90
16700;DHT22;8466;52.286;21.124;2023-04-03T07:10:26;0.80;99.90
16700;DHT22;8466;52.286;21.124;2023-04-03T07:12:55;0.80;99.90
16700;DHT22;8466;52.286;21.124;2023-04-03T07:15:25;0.90;99.90
16700;DHT22;8466;52.286;21.124;2023-04-03T07:17:54;1.00;99.90
16700;DHT22;8466;52.286;21.124;2023-04-03T07:20:22;1.00;99.90
16700;DHT22;8466;52.286;21.124;2023-04-03T07:22:51;1.10;99.90
16700;DHT22;8466;52.286;21.124;2023-04-03T07:25:20;1.10;99.90
16700;DHT22;8466;52.286;21.124;2023-04-03T07:27:49;1.20;99.90
16700;DHT22;8466;52.286;21.124;2023-04-03T07:30:18;1.30;99.90
16700;DHT22;8466;52.286;21.124;2023-04-03T07:32:48;1.40;99.90
16700;DHT22;8466;52.286;21.124;2023-04-03T07:35:17;1.40;99.90
16700;DHT22;8466;52.286;21.124;2023-04-03T07:37:46;1.50;99.90
16700;DHT22;8466;52.286;21.124;2023-04-03T07:40:14;1.50;99.90
16700;DHT22;8466;52.286;21.124;2023-04-03T07:42:45;1.50;99.90
16700;DHT22;8466;52.286;21.124;2023-04-03T07:45:14;1.60;99.90
16700;DHT22;8466;52.286;21.124;2023-04-03T07:47:44;1.60;99.90
16700;DHT22;8466;52.286;21.124;2023-04-03T07:50:14;1.70;99.90
16700;DHT22;8466;52.286;21.124;2023-04-03T07:52:43;1.80;99.90
16700;DHT22;8466;52.286;21.124;2023-04-03T07:55:12;1.80;99.90
16700;DHT22;8466;52.286;21.124;2023-04-03T07:57:41;1.90;99.90
16700;DHT22;8466;52.286;21.124;2023-04-03T08:00:11;1.90;99.90
16700;DHT22;8466;52.286;21.124;2023-04-03T08:02:40;1.90;99.90
16700;DHT22;8466;52.286;21.124;2023-04-03T08:05:09;2.00;99.90
16700;DHT22;8466;52.286;21.124;2023-04-03T08:07:39;2.10;99.90
16700;DHT22;8466;52.286;21.124;2023-04-03T08:10:08;2.20;99.90
16700;DHT22;8466;52.286;21.124;2023-04-03T08:12:37;2.30;99.90
16700;DHT22;8466;52.286;21.124;2023-04-03T08:15:07;2.30;99.90
16700;DHT22;8466;52.286;21.124;2023-04-03T08:17:36;2.30;99.90
16700;DHT22;8466;52.286;21.124;2023-04-03T08:20:06;2.40;99.90
16700;DHT22;8466;52.286;21.124;2023-04-03T08:22:35;2.50;99.90
16700;DHT22;8466;52.286;21.124;2023-04-03T08:25:06;2.60;99.90
16700;DHT22;8466;52.286;21.124;2023-04-03T08:27:36;2.70;99.90
16700;DHT22;8466;52.286;21.124;2023-04-03T08:30:06;2.70;99.90
16700;DHT22;8466;52.286;21.124;2023-04-03T08:32:36;2.60;99.90
16700;DHT22;8466;52.286;21.124;2023-04-03T08:35:05;2.60;99.90
16700;DHT22;8466;52.286;21.124;2023-04-03T08:37:35;2.60;99.90
16700;DHT22;8466;52.286;21.124;2023-04-03T08:40:12;2.70;99.90
16700;DHT22;8466;52.286;21.124;2023-04-03T08:42:59;2.90;99.90
16700;DHT22;8466;52.286;21.124;2023-04-03T08:45:42;3.10;99.90
16700;DHT22;8466;52.286;21.124;2023-04-03T08:48:14;3.20;99.90
16700;DHT22;8466;52.286;21.124;2023-04-03T08:50:46;3.40;99.00
16700;DHT22;8466;52.286;21.124;2023-04-03T08:53:18;3.60;99.20
16700;DHT22;8466;52.286;21.124;2023-04-03T08:55:51;3.70;97.10
16700;DHT22;8466;52.286;21.124;2023-04-03T08:58:21;3.50;94.30
16700;DHT22;8466;52.286;21.124;2023-04-03T09:00:53;3.40;94.10
16700;DHT22;8466;52.286;21.124;2023-04-03T09:03:24;3.40;94.50
16700;DHT22;8466;52.286;21.124;2023-04-03T09:05:57;3.30;93.50
16700;DHT22;8466;52.286;21.124;2023-04-03T09:08:30;3.10;93.50
16700;DHT22;8466;52.286;21.124;2023-04-03T09:11:09;3.10;94.20
16700;DHT22;8466;52.286;21.124;2023-04-03T09:13:47;3.20;93.80
16700;DHT22;8466;52.286;21.124;2023-04-03T09:16:28;3.50;94.50
16700;DHT22;8466;52.286;21.124;2023-04-03T09:19:02;3.70;94.00
16700;DHT22;8466;52.286;21.124;2023-04-03T09:21:38;3.70;94.10
16700;DHT22;8466;52.286;21.124;2023-04-03T09:24:11;3.50;93.80
16700;DHT22;8466;52.286;21.124;2023-04-03T09:26:44;3.40;94.40
16700;DHT22;8466;52.286;21.124;2023-04-03T09:29:18;3.60;94.70
16700;DHT22;8466;52.286;21.124;2023-04-03T09:31:49;3.60;94.20
16700;DHT22;8466;52.286;21.124;2023-04-03T09:34:23;3.70;93.60
16700;DHT22;8466;52.286;21.124;2023-04-03T09:36:54;3.70;93.50
16700;DHT22;8466;52.286;21.124;2023-04-03T09:39:25;3.70;93.20
16700;DHT22;8466;52.286;21.124;2023-04-03T09:42:00;3.60;93.10
16700;DHT22;8466;52.286;21.124;2023-04-03T09:44:31;3.60;92.70
16700;DHT22;8466;52.286;21.124;2023-04-03T09:47:18;3.60;92.80
16700;DHT22;8466;52.286;21.124;2023-04-03T09:49:47;3.70;93.20
16700;DHT22;8466;52.286;21.124;2023-04-03T09:52:19;3.90;92.20
16700;DHT22;8466;52.286;21.124;2023-04-03T09:54:48;4.00;92.40
16700;DHT22;8466;52.286;21.124;2023-04-03T09:57:18;3.90;92.40
16700;DHT22;8466;52.286;21.124;2023-04-03T09:59:57;3.80;92.40
16700;DHT22;8466;52.286;21.124;2023-04-03T10:02:34;3.80;93.10
16700;DHT22;8466;52.286;21.124;2023-04-03T10:05:04;3.90;92.80
16700;DHT22;8466;52.286;21.124;2023-04-03T10:08:08;3.90;91.90
16700;DHT22;8466;52.286;21.124;2023-04-03T10:10:37;3.80;91.90
16700;DHT22;8466;52.286;21.124;2023-04-03T10:13:11;3.80;91.60
16700;DHT22;8466;52.286;21.124;2023-04-03T10:15:51;4.00;92.30
16700;DHT22;8466;52.286;21.124;2023-04-03T10:18:32;4.30;92.30
16700;DHT22;8466;52.286;21.124;2023-04-03T10:21:06;4.50;91.00
16700;DHT22;8466;52.286;21.124;2023-04-03T10:23:51;4.30;91.30
16700;DHT22;8466;52.286;21.124;2023-04-03T10:26:29;4.10;90.70
16700;DHT22;8466;52.286;21.124;2023-04-03T10:29:09;4.10;90.10
16700;DHT22;8466;52.286;21.124;2023-04-03T10:31:46;4.20;90.20
16700;DHT22;8466;52.286;21.124;2023-04-03T10:34:21;4.50;90.40
16700;DHT22;8466;52.286;21.124;2023-04-03T10:36:56;4.80;89.80
16700;DHT22;8466;52.286;21.124;2023-04-03T10:39:32;5.00;87.90
16700;DHT22;8466;52.286;21.124;2023-04-03T10:42:08;5.10;88.60
16700;DHT22;8466;52.286;21.124;2023-04-03T10:44:56;5.50;87.60
16700;DHT22;8466;52.286;21.124;2023-04-03T10:47:34;5.70;85.60
16700;DHT22;8466;52.286;21.124;2023-04-03T10:50:20;5.80;86.10
16700;DHT22;8466;52.286;21.124;2023-04-03T10:52:57;5.90;86.10
16700;DHT22;8466;52.286;21.124;2023-04-03T10:55:35;5.70;86.60
16700;DHT22;8466;52.286;21.124;2023-04-03T10:58:06;5.50;86.40
16700;DHT22;8466;52.286;21.124;2023-04-03T11:00:48;5.40;86.60
16700;DHT22;8466;52.286;21.124;2023-04-03T11:03:27;5.20;86.90
16700;DHT22;8466;52.286;21.124;2023-04-03T11:06:01;5.30;85.90
16700;DHT22;8466;52.286;21.124;2023-04-03T11:08:34;5.40;85.60
16700;DHT22;8466;52.286;21.124;2023-04-03T11:11:11;5.50;85.40
16700;DHT22;8466;52.286;21.124;2023-04-03T11:13:44;5.60;85.50
16700;DHT22;8466;52.286;21.124;2023-04-03T11:16:19;5.40;87.10
16700;DHT22;8466;52.286;21.124;2023-04-03T11:18:52;5.40;86.80
16700;DHT22;8466;52.286;21.124;2023-04-03T11:21:27;5.40;87.20
16700;DHT22;8466;52.286;21.124;2023-04-03T11:23:59;5.30;87.70
16700;DHT22;8466;52.286;21.124;2023-04-03T11:26:31;5.10;86.60
16700;DHT22;8466;52.286;21.124;2023-04-03T11:29:04;5.00;87.70
16700;DHT22;8466;52.286;21.124;2023-04-03T11:32:01;5.30;87.10
16700;DHT22;8466;52.286;21.124;2023-04-03T11:34:35;5.60;86.40
16700;DHT22;8466;52.286;21.124;2023-04-03T11:37:13;5.80;85.50
16700;DHT22;8466;52.286;21.124;2023-04-03T11:39:49;5.70;83.40
16700;DHT22;8466;52.286;21.124;2023-04-03T11:42:26;5.60;83.90
16700;DHT22;8466;52.286;21.124;2023-04-03T11:45:22;5.30;84.90
16700;DHT22;8466;52.286;21.124;2023-04-03T11:47:56;5.50;83.20
16700;DHT22;8466;52.286;21.124;2023-04-03T11:50:38;5.70;83.70
16700;DHT22;8466;52.286;21.124;2023-04-03T11:53:34;5.90;84.50
16700;DHT22;8466;52.286;21.124;2023-04-03T11:56:28;6.20;82.90
16700;DHT22;8466;52.286;21.124;2023-04-03T11:59:22;6.20;83.20
16700;DHT22;8466;52.286;21.124;2023-04-03T12:01:51;6.30;82.60
16700;DHT22;8466;52.286;21.124;2023-04-03T12:04:24;6.40;83.30
16700;DHT22;8466;52.286;21.124;2023-04-03T12:07:12;6.40;82.20
16700;DHT22;8466;52.286;21.124;2023-04-03T12:10:17;6.30;82.60
16700;DHT22;8466;52.286;21.124;2023-04-03T12:13:00;6.30;80.90
16700;DHT22;8466;52.286;21.124;2023-04-03T12:15:50;6.20;80.60
16700;DHT22;8466;52.286;21.124;2023-04-03T12:18:55;6.10;81.50
16700;DHT22;8466;52.286;21.124;2023-04-03T12:22:05;6.00;80.00
16700;DHT22;8466;52.286;21.124;2023-04-03T12:24:35;5.80;79.60
16700;DHT22;8466;52.286;21.124;2023-04-03T12:30:19;5.70;81.20
16700;DHT22;8466;52.286;21.124;2023-04-03T12:33:02;6.10;80.50
16700;DHT22;8466;52.286;21.124;2023-04-03T12:35:44;6.30;79.20
16700;DHT22;8466;52.286;21.124;2023-04-03T12:38:30;6.10;79.60
16700;DHT22;8466;52.286;21.124;2023-04-03T12:41:18;6.20;80.60
16700;DHT22;8466;52.286;21.124;2023-04-03T12:44:23;6.30;80.50
16700;DHT22;8466;52.286;21.124;2023-04-03T12:46:54;6.20;78.80
16700;DHT22;8466;52.286;21.124;2023-04-03T12:49:35;6.00;78.60
16700;DHT22;8466;52.286;21.124;2023-04-03T12:52:13;5.90;79.80
16700;DHT22;8466;52.286;21.124;2023-04-03T12:54:50;5.70;78.70
16700;DHT22;8466;52.286;21.124;2023-04-03T12:57:21;5.70;78.40
16700;DHT22;8466;52.286;21.124;2023-04-03T12:59:52;5.80;77.60
16700;DHT22;8466;52.286;21.124;2023-04-03T13:02:24;5.90;78.00
16700;DHT22;8466;52.286;21.124;2023-04-03T13:04:54;6.20;77.40
16700;DHT22;8466;52.286;21.124;2023-04-03T13:07:28;6.30;77.00
16700;DHT22;8466;52.286;21.124;2023-04-03T13:10:03;6.20;76.70
16700;DHT22;8466;52.286;21.124;2023-04-03T13:12:32;6.20;77.90
16700;DHT22;8466;52.286;21.124;2023-04-03T13:15:12;6.20;75.40
16700;DHT22;8466;52.286;21.124;2023-04-03T13:17:43;6.10;77.10
16700;DHT22;8466;52.286;21.124;2023-04-03T13:20:15;6.10;78.90
16700;DHT22;8466;52.286;21.124;2023-04-03T13:22:51;6.20;79.70
16700;DHT22;8466;52.286;21.124;2023-04-03T13:25:23;6.40;79.40
16700;DHT22;8466;52.286;21.124;2023-04-03T13:27:52;6.50;79.80
16700;DHT22;8466;52.286;21.124;2023-04-03T13:30:39;6.50;77.10
16700;DHT22;8466;52.286;21.124;2023-04-03T13:33:20;6.50;77.50
16700;DHT22;8466;52.286;21.124;2023-04-03T13:35:55;6.50;78.40
16700;DHT22;8466;52.286;21.124;2023-04-03T13:38:26;6.50;78.00
16700;DHT22;8466;52.286;21.124;2023-04-03T13:40:58;6.40;77.50
16700;DHT22;8466;52.286;21.124;2023-04-03T13:43:38;6.50;77.40
16700;DHT22;8466;52.286;21.124;2023-04-03T13:46:24;6.50;76.80
16700;DHT22;8466;52.286;21.124;2023-04-03T13:48:55;6.40;76.40
16700;DHT22;8466;52.286;21.124;2023-04-03T13:51:25;6.50;76.80
16700;DHT22;8466;52.286;21.124;2023-04-03T13:53:57;6.40;76.60
16700;DHT22;8466;52.286;21.124;2023-04-03T13:56:31;6.30;76.90
16700;DHT22;8466;52.286;21.124;2023-04-03T13:59:21;6.10;76.60
16700;DHT22;8466;52.286;21.124;2023-04-03T14:01:53;6.00;77.50
16700;DHT22;8466;52.286;21.124;2023-04-03T14:04:24;6.20;78.00
16700;DHT22;8466;52.286;21.124;2023-04-03T14:06:54;6.40;77.80
16700;DHT22;8466;52.286;21.124;2023-04-03T14:09:25;6.60;77.20
16700;DHT22;8466;52.286;21.124;2023-04-03T14:11:59;6.60;76.10
16700;DHT22;8466;52.286;21.124;2023-04-03T14:14:31;6.50;76.10
16700;DHT22;8466;52.286;21.124;2023-04-03T14:17:03;6.40;76.20
16700;DHT22;8466;52.286;21.124;2023-04-03T14:19:52;6.50;76.80
16700;DHT22;8466;52.286;21.124;2023-04-03T14:22:22;6.60;77.50
16700;DHT22;8466;52.286;21.124;2023-04-03T14:24:52;6.60;76.50
16700;DHT22;8466;52.286;21.124;2023-04-03T14:27:24;6.50;75.00
16700;DHT22;8466;52.286;21.124;2023-04-03T14:29:56;6.40;75.40
16700;DHT22;8466;52.286;21.124;2023-04-03T14:32:25;6.10;76.00
16700;DHT22;8466;52.286;21.124;2023-04-03T14:34:54;6.00;77.50
16700;DHT22;8466;52.286;21.124;2023-04-03T14:37:26;6.00;78.40
16700;DHT22;8466;52.286;21.124;2023-04-03T14:39:58;6.00;76.90
16700;DHT22;8466;52.286;21.124;2023-04-03T14:42:30;5.90;76.20
16700;DHT22;8466;52.286;21.124;2023-04-03T14:45:00;5.90;76.70
16700;DHT22;8466;52.286;21.124;2023-04-03T14:47:33;6.00;77.10
16700;DHT22;8466;52.286;21.124;2023-04-03T14:50:08;6.00;77.10
16700;DHT22;8466;52.286;21.124;2023-04-03T14:52:44;6.00;77.10
16700;DHT22;8466;52.286;21.124;2023-04-03T14:55:16;6.00;76.50
16700;DHT22;8466;52.286;21.124;2023-04-03T14:57:47;6.00;76.70
16700;DHT22;8466;52.286;21.124;2023-04-03T15:00:18;6.00;75.80
16700;DHT22;8466;52.286;21.124;2023-04-03T15:02:48;6.00;75.20
16700;DHT22;8466;52.286;21.124;2023-04-03T15:05:17;5.90;76.10
16700;DHT22;8466;52.286;21.124;2023-04-03T15:07:49;5.80;76.60
16700;DHT22;8466;52.286;21.124;2023-04-03T15:10:20;5.70;77.50
16700;DHT22;8466;52.286;21.124;2023-04-03T15:12:52;5.60;78.00
16700;DHT22;8466;52.286;21.124;2023-04-03T15:15:22;5.60;77.90
16700;DHT22;8466;52.286;21.124;2023-04-03T15:17:53;5.50;78.40
16700;DHT22;8466;52.286;21.124;2023-04-03T15:20:26;5.60;79.20
16700;DHT22;8466;52.286;21.124;2023-04-03T15:22:57;5.50;79.00
16700;DHT22;8466;52.286;21.124;2023-04-03T15:25:27;5.60;79.20
16700;DHT22;8466;52.286;21.124;2023-04-03T15:27:58;5.60;78.10
16700;DHT22;8466;52.286;21.124;2023-04-03T15:30:26;5.50;77.10
16700;DHT22;8466;52.286;21.124;2023-04-03T15:32:55;5.50;77.50
16700;DHT22;8466;52.286;21.124;2023-04-03T15:35:24;5.50;78.60
16700;DHT22;8466;52.286;21.124;2023-04-03T15:37:52;5.50;78.30
16700;DHT22;8466;52.286;21.124;2023-04-03T15:40:21;5.50;78.20
16700;DHT22;8466;52.286;21.124;2023-04-03T15:42:52;5.40;78.70
16700;DHT22;8466;52.286;21.124;2023-04-03T15:45:23;5.30;79.00
16700;DHT22;8466;52.286;21.124;2023-04-03T15:47:53;5.30;78.80
16700;DHT22;8466;52.286;21.124;2023-04-03T15:50:22;5.20;79.30
16700;DHT22;8466;52.286;21.124;2023-04-03T15:52:51;5.30;80.30
16700;DHT22;8466;52.286;21.124;2023-04-03T15:55:22;5.30;80.50
16700;DHT22;8466;52.286;21.124;2023-04-03T15:57:53;5.20;80.60
16700;DHT22;8466;52.286;21.124;2023-04-03T16:00:23;5.30;81.30
16700;DHT22;8466;52.286;21.124;2023-04-03T16:02:54;5.40;81.70
16700;DHT22;8466;52.286;21.124;2023-04-03T16:05:25;5.20;80.90
16700;DHT22;8466;52.286;21.124;2023-04-03T16:07:54;5.20;81.30
16700;DHT22;8466;52.286;21.124;2023-04-03T16:10:23;5.10;80.60
16700;DHT22;8466;52.286;21.124;2023-04-03T16:12:52;5.00;81.50
16700;DHT22;8466;52.286;21.124;2023-04-03T16:15:20;5.00;82.20
16700;DHT22;8466;52.286;21.124;2023-04-03T16:17:51;5.00;81.50